createdAt,value
2019-03-18T00:02:11.999Z,97.90
2019-03-18T00:04:42.500Z,97.80
2019-03-18T00:07:12.201Z,97.80
2019-03-18T00:09:41.875Z,97.60
2019-03-18T00:12:11.552Z,97.50
2019-03-18T00:14:41.464Z,97.80
2019-03-18T00:17:11.161Z,97.40
2019-03-18T00:19:43.090Z,97.30
2019-03-18T00:22:11.653Z,97.30
2019-03-18T00:24:41.254Z,97.30
2019-03-18T00:27:10.862Z,97.30
2019-03-18T00:29:40.523Z,97.30
2019-03-18T00:32:10.147Z,97.30
2019-03-18T00:34:39.763Z,97.30
2019-03-18T00:37:09.449Z,97.20
2019-03-18T00:39:39.058Z,97.10
2019-03-18T00:42:08.678Z,97.10
2019-03-18T00:44:38.370Z,97.40
2019-03-18T00:47:08.030Z,97.10
2019-03-18T00:49:37.621Z,97.10
2019-03-18T00:52:07.279Z,96.90
2019-03-18T00:54:36.906Z,96.90
2019-03-18T00:57:09.034Z,96.80
2019-03-18T00:59:39.830Z,96.60
2019-03-18T01:02:09.510Z,96.50
2019-03-18T01:04:39.128Z,96.30
2019-03-18T01:07:08.738Z,96.30
2019-03-18T01:09:38.373Z,96.30
2019-03-18T01:12:07.981Z,96.00
2019-03-18T01:14:37.619Z,96.00
2019-03-18T01:17:07.230Z,96.00
2019-03-18T01:19:36.882Z,95.90
2019-03-18T01:22:06.508Z,95.80
2019-03-18T01:24:36.119Z,95.70
2019-03-18T01:27:05.778Z,95.60
2019-03-18T01:29:35.399Z,95.60
2019-03-18T01:32:06.386Z,95.60
2019-03-18T01:34:36.006Z,95.70
2019-03-18T01:37:05.628Z,95.50
2019-03-18T01:39:35.265Z,95.50
2019-03-18T01:42:04.886Z,95.60
2019-03-18T01:44:34.531Z,95.60
2019-03-18T01:47:04.149Z,95.60
2019-03-18T01:49:33.792Z,95.70
2019-03-18T01:52:03.409Z,95.70
2019-03-18T01:54:33.062Z,95.80
2019-03-18T01:57:02.697Z,95.70
2019-03-18T01:59:32.310Z,95.90
2019-03-18T02:02:01.970Z,95.90
2019-03-18T02:04:31.625Z,96.00
2019-03-18T02:07:01.242Z,96.10
2019-03-18T02:09:30.887Z,96.10
2019-03-18T02:12:00.512Z,96.10
2019-03-18T02:14:30.116Z,96.10
2019-03-18T02:16:59.738Z,96.40
2019-03-18T02:19:29.371Z,96.40
2019-03-18T02:21:59.015Z,96.20
2019-03-18T02:24:28.642Z,96.30
2019-03-18T02:26:58.251Z,96.30
2019-03-18T02:29:27.868Z,96.70
2019-03-18T02:31:57.534Z,96.40
2019-03-18T02:34:27.152Z,96.40
2019-03-18T02:36:56.792Z,96.40
2019-03-18T02:39:26.420Z,96.40
2019-03-18T02:41:56.019Z,96.20
2019-03-18T02:44:25.659Z,96.20
2019-03-18T02:46:55.280Z,96.20
2019-03-18T02:49:24.889Z,96.10
2019-03-18T02:51:54.535Z,96.00
2019-03-18T02:54:24.187Z,96.00
2019-03-18T02:56:53.837Z,95.80
2019-03-18T02:59:23.450Z,95.70
2019-03-18T03:01:53.070Z,95.70
2019-03-18T03:04:22.683Z,95.50
2019-03-18T03:06:52.322Z,95.80
2019-03-18T03:09:21.943Z,95.40
2019-03-18T03:11:51.635Z,95.00
2019-03-18T03:14:21.242Z,95.30
2019-03-18T03:16:50.980Z,94.90
2019-03-18T03:19:20.586Z,94.80
2019-03-18T03:21:50.250Z,94.90
2019-03-18T03:24:19.938Z,94.90
2019-03-18T03:26:49.524Z,94.90
2019-03-18T03:29:19.517Z,94.90
2019-03-18T03:31:49.158Z,94.80
2019-03-18T03:34:20.007Z,94.90
2019-03-18T03:36:49.646Z,95.30
2019-03-18T03:39:19.303Z,94.90
2019-03-18T03:41:48.928Z,94.90
2019-03-18T03:44:18.922Z,94.90
2019-03-18T03:46:48.566Z,94.90
2019-03-18T03:49:18.253Z,94.80
2019-03-18T03:51:47.863Z,94.80
2019-03-18T03:54:17.472Z,94.80
2019-03-18T03:56:47.123Z,94.60
2019-03-18T03:59:16.777Z,94.70
2019-03-18T04:01:46.444Z,94.60
2019-03-18T04:04:16.070Z,94.70
2019-03-18T04:06:45.707Z,94.60
2019-03-18T04:09:15.319Z,94.50
2019-03-18T04:11:44.961Z,94.40
2019-03-18T04:14:14.645Z,94.50
2019-03-18T04:16:55.879Z,94.40
2019-03-18T04:19:13.963Z,94.50
2019-03-18T04:21:44.312Z,94.40
2019-03-18T04:24:13.918Z,94.40
2019-03-18T04:26:43.560Z,94.50
2019-03-18T04:29:14.503Z,94.50
2019-03-18T04:31:44.130Z,94.60
2019-03-18T04:34:13.752Z,94.60
2019-03-18T04:36:43.378Z,94.60
2019-03-18T04:39:13.027Z,94.70
2019-03-18T04:41:43.904Z,94.70
2019-03-18T04:44:13.572Z,94.80
2019-03-18T04:46:43.204Z,94.90
2019-03-18T04:49:12.822Z,94.90
2019-03-18T04:51:42.487Z,95.10
2019-03-18T04:54:12.205Z,95.00
2019-03-18T04:56:43.059Z,95.10
2019-03-18T04:59:12.665Z,95.10
2019-03-18T05:01:43.605Z,95.10
2019-03-18T05:04:13.238Z,95.20
2019-03-18T05:06:42.854Z,95.10
2019-03-18T05:09:12.491Z,95.10
2019-03-18T05:11:43.467Z,94.90
2019-03-18T05:14:13.084Z,95.00
2019-03-18T05:16:45.251Z,95.00
2019-03-18T05:19:14.857Z,95.00
2019-03-18T05:21:45.707Z,95.00
2019-03-18T05:24:15.373Z,95.00
2019-03-18T05:26:45.009Z,94.90
2019-03-18T05:29:14.642Z,94.70
2019-03-18T05:31:44.292Z,94.60
2019-03-18T05:34:16.364Z,94.40
2019-03-18T05:36:48.538Z,94.30
2019-03-18T05:39:18.226Z,93.90
2019-03-18T05:41:48.713Z,93.90
2019-03-18T05:44:18.528Z,93.80
2019-03-18T05:46:49.634Z,93.70
2019-03-18T05:49:19.271Z,93.30
2019-03-18T05:51:50.353Z,92.80
2019-03-18T05:54:20.048Z,92.60
2019-03-18T05:56:49.787Z,92.50
2019-03-18T05:59:19.758Z,92.30
2019-03-18T06:01:49.400Z,92.20
2019-03-18T06:04:20.389Z,91.90
2019-03-18T06:06:50.088Z,91.70
2019-03-18T06:09:19.784Z,91.20
2019-03-18T06:11:49.413Z,90.80
2019-03-18T06:14:20.351Z,90.60
2019-03-18T06:16:50.079Z,90.30
2019-03-18T06:19:19.707Z,90.00
2019-03-18T06:21:49.443Z,89.10
2019-03-18T06:24:19.103Z,88.20
2019-03-18T06:26:48.714Z,87.20
2019-03-18T06:29:18.366Z,87.20
2019-03-18T06:31:49.326Z,88.00
2019-03-18T06:34:18.942Z,87.80
2019-03-18T06:36:48.594Z,88.40
2019-03-18T06:39:20.102Z,89.20
2019-03-18T06:41:50.971Z,89.50
2019-03-18T06:44:22.582Z,89.00
2019-03-18T06:46:52.210Z,88.20
2019-03-18T06:49:23.047Z,87.90
2019-03-18T06:51:52.702Z,87.50
2019-03-18T06:54:23.432Z,86.70
2019-03-18T06:56:54.306Z,86.30
2019-03-18T06:59:26.474Z,85.70
2019-03-18T07:01:56.112Z,84.50
2019-03-18T07:04:26.958Z,82.90
2019-03-18T07:06:56.606Z,80.30
2019-03-18T07:09:26.238Z,78.90
2019-03-18T07:11:55.852Z,75.90
2019-03-18T07:14:26.660Z,74.20
2019-03-18T07:16:57.625Z,72.00
2019-03-18T07:19:27.255Z,71.50
2019-03-18T07:21:56.866Z,70.80
2019-03-18T07:24:26.483Z,70.70
2019-03-18T07:26:56.128Z,69.60
2019-03-18T07:29:25.797Z,67.50
2019-03-18T07:31:55.413Z,64.70
2019-03-18T07:34:25.078Z,62.00
2019-03-18T07:36:54.693Z,57.10
2019-03-18T07:39:24.348Z,53.20
2019-03-18T07:41:54.026Z,50.80
2019-03-18T07:44:23.678Z,48.60
2019-03-18T07:46:53.315Z,46.60
2019-03-18T07:49:22.966Z,43.30
2019-03-18T07:51:52.668Z,42.80
2019-03-18T07:54:32.323Z,42.00
2019-03-18T07:56:52.020Z,42.00
2019-03-18T07:59:21.733Z,41.50
2019-03-18T08:01:51.378Z,42.20
2019-03-18T08:04:21.066Z,41.20
2019-03-18T08:06:50.736Z,43.10
2019-03-18T08:09:20.363Z,44.80
2019-03-18T08:11:50.177Z,46.50
2019-03-18T08:14:19.782Z,48.20
2019-03-18T08:16:49.448Z,49.80
2019-03-18T08:19:19.292Z,51.40
2019-03-18T08:21:49.017Z,53.70
2019-03-18T08:24:18.691Z,53.60
2019-03-18T08:26:48.355Z,50.80
2019-03-18T08:29:18.349Z,47.30
2019-03-18T08:31:48.056Z,44.20
2019-03-18T08:34:17.704Z,41.70
2019-03-18T08:36:47.359Z,42.00
2019-03-18T08:39:17.022Z,41.60
2019-03-18T08:41:47.934Z,42.00
2019-03-18T08:44:17.713Z,40.60
2019-03-18T08:46:47.399Z,39.50
2019-03-18T08:49:17.064Z,39.70
2019-03-18T08:51:46.962Z,39.90
2019-03-18T08:54:16.671Z,39.50
2019-03-18T08:56:46.302Z,39.30
2019-03-18T08:59:17.318Z,37.00
2019-03-18T09:01:46.978Z,36.30
2019-03-18T09:04:16.637Z,36.00
2019-03-18T09:06:46.315Z,33.90
2019-03-18T09:09:16.166Z,32.50
2019-03-18T09:11:45.840Z,31.90
2019-03-18T09:14:15.511Z,30.90
2019-03-18T09:16:45.207Z,30.10
2019-03-18T09:19:15.114Z,30.40
2019-03-18T09:21:46.127Z,30.00
2019-03-18T09:24:15.801Z,30.20
2019-03-18T09:26:45.479Z,32.00
2019-03-18T09:29:15.150Z,34.00
2019-03-18T09:31:46.075Z,36.30
2019-03-18T09:34:15.811Z,38.50
2019-03-18T09:36:45.514Z,40.50
2019-03-18T09:39:15.159Z,41.70
2019-03-18T09:41:44.834Z,42.90
2019-03-18T09:44:14.523Z,44.60
2019-03-18T09:46:45.415Z,46.40
2019-03-18T09:49:21.421Z,47.70
2019-03-18T09:51:45.947Z,49.00
2019-03-18T09:54:15.586Z,50.10
2019-03-18T09:56:45.249Z,51.30
2019-03-18T09:59:14.890Z,52.40
2019-03-18T10:01:44.662Z,53.40
2019-03-18T10:04:16.654Z,54.30
2019-03-18T10:06:48.307Z,55.40
2019-03-18T10:09:16.114Z,56.50
2019-03-18T10:11:45.741Z,57.50
2019-03-18T10:14:15.356Z,58.50
2019-03-18T10:16:44.998Z,59.10
2019-03-18T10:19:16.067Z,59.60
2019-03-18T10:21:45.701Z,59.70
2019-03-18T10:24:15.317Z,59.40
2019-03-18T10:26:47.531Z,58.70
2019-03-18T10:29:19.555Z,58.00
2019-03-18T10:31:49.370Z,57.70
2019-03-18T10:34:19.075Z,57.10
2019-03-18T10:36:48.746Z,57.30
2019-03-18T10:39:18.376Z,57.70
2019-03-18T10:41:48.479Z,58.50
2019-03-18T10:44:18.210Z,58.90
2019-03-18T10:46:47.824Z,59.30
2019-03-18T10:49:20.028Z,59.70
2019-03-18T10:51:49.761Z,60.30
2019-03-18T10:54:30.362Z,60.70
2019-03-18T10:56:51.101Z,60.50
2019-03-18T10:59:20.704Z,60.10
2019-03-18T11:01:51.526Z,59.50
2019-03-18T11:04:21.178Z,59.10
2019-03-18T11:06:50.882Z,58.60
2019-03-18T11:09:20.528Z,58.40
2019-03-18T11:11:50.150Z,58.00
2019-03-18T11:14:19.885Z,57.80
2019-03-18T11:16:52.293Z,57.80
2019-03-18T11:19:19.157Z,57.60
2019-03-18T11:21:48.822Z,57.90
2019-03-18T11:24:18.443Z,58.20
2019-03-18T11:26:48.050Z,58.50
2019-03-18T11:29:18.946Z,58.60
2019-03-18T11:31:48.599Z,57.70
2019-03-18T11:34:19.378Z,57.50
2019-03-18T11:36:49.081Z,57.60
2019-03-18T11:39:19.987Z,57.80
2019-03-18T11:41:52.026Z,58.80
2019-03-18T11:44:21.795Z,60.40
2019-03-18T11:46:51.430Z,60.60
2019-03-18T11:49:21.051Z,61.20
2019-03-18T11:51:50.690Z,61.30
2019-03-18T11:54:20.371Z,61.80
2019-03-18T11:56:49.918Z,62.20
2019-03-18T11:59:20.994Z,62.60
2019-03-18T12:01:49.230Z,62.70
2019-03-18T12:04:18.862Z,62.40
2019-03-18T12:06:48.503Z,63.10
2019-03-18T12:09:18.194Z,62.20
2019-03-18T12:11:47.843Z,61.90
2019-03-18T12:14:18.817Z,62.80
2019-03-18T12:16:48.430Z,62.50
2019-03-18T12:19:18.130Z,62.60
2019-03-18T12:21:47.749Z,63.00
2019-03-18T12:24:17.414Z,62.50
2019-03-18T12:26:49.233Z,62.50
2019-03-18T12:29:16.791Z,61.90
2019-03-18T12:31:46.421Z,61.50
2019-03-18T12:34:16.070Z,59.30
2019-03-18T12:36:45.778Z,58.10
2019-03-18T12:39:15.384Z,57.70
2019-03-18T12:41:45.002Z,57.20
2019-03-18T12:44:14.645Z,56.90
2019-03-18T12:46:44.331Z,57.00
2019-03-18T12:49:13.971Z,57.40
2019-03-18T12:51:43.624Z,57.60
2019-03-18T12:54:15.592Z,57.80
2019-03-18T12:56:46.503Z,57.60
2019-03-18T12:59:16.162Z,57.70
2019-03-18T13:01:45.895Z,57.80
2019-03-18T13:04:15.539Z,58.00
2019-03-18T13:06:45.276Z,58.00
2019-03-18T13:09:14.943Z,57.40
2019-03-18T13:11:44.606Z,57.20
2019-03-18T13:14:14.242Z,57.40
2019-03-18T13:16:43.874Z,57.90
2019-03-18T13:19:13.511Z,58.40
2019-03-18T13:21:43.122Z,58.80
2019-03-18T13:24:15.392Z,58.60
2019-03-18T13:26:45.054Z,58.90
2019-03-18T13:29:14.682Z,58.60
2019-03-18T13:31:44.322Z,59.10
2019-03-18T13:34:13.989Z,59.40
2019-03-18T13:36:43.839Z,59.70
2019-03-18T13:39:13.476Z,60.20
2019-03-18T13:41:43.121Z,61.30
2019-03-18T13:44:15.242Z,62.40
2019-03-18T13:46:44.855Z,63.10
2019-03-18T13:49:15.939Z,63.50
2019-03-18T13:51:44.157Z,63.00
2019-03-18T13:54:13.829Z,63.50
2019-03-18T13:56:43.516Z,63.70
2019-03-18T13:59:14.427Z,64.20
2019-03-18T14:01:44.048Z,64.30
2019-03-18T14:04:13.667Z,64.90
2019-03-18T14:06:43.297Z,64.50
2019-03-18T14:09:13.102Z,66.50
2019-03-18T14:11:42.735Z,69.00
2019-03-18T14:14:12.406Z,70.10
2019-03-18T14:16:42.037Z,71.80
2019-03-18T14:19:11.766Z,72.10
2019-03-18T14:21:42.737Z,73.40
2019-03-18T14:24:12.411Z,75.20
2019-03-18T14:26:42.046Z,76.70
2019-03-18T14:29:14.098Z,77.80
2019-03-18T14:31:46.247Z,78.40
2019-03-18T14:34:15.882Z,78.60
2019-03-18T14:36:48.142Z,78.70
2019-03-18T14:39:17.750Z,79.20
2019-03-18T14:41:47.399Z,79.60
2019-03-18T14:44:17.046Z,79.50
2019-03-18T14:46:46.653Z,78.70
2019-03-18T14:49:17.619Z,77.80
2019-03-18T14:51:47.241Z,77.90
2019-03-18T14:54:16.902Z,77.90
2019-03-18T14:56:46.610Z,77.20
2019-03-18T14:59:16.286Z,77.50
2019-03-18T15:01:47.196Z,76.70
2019-03-18T15:04:16.811Z,75.30
2019-03-18T15:06:46.437Z,75.00
2019-03-18T15:09:16.129Z,73.20
2019-03-18T15:11:45.835Z,71.70
2019-03-18T15:14:17.211Z,72.10
2019-03-18T15:16:46.985Z,73.10
2019-03-18T15:19:19.160Z,73.70
2019-03-18T15:21:58.054Z,73.80
2019-03-18T15:24:18.525Z,74.10
2019-03-18T15:26:48.149Z,74.20
2019-03-18T15:29:18.039Z,74.30
2019-03-18T15:31:47.711Z,74.50
2019-03-18T15:34:17.367Z,75.00
2019-03-18T15:36:47.155Z,75.70
2019-03-18T15:39:16.815Z,76.40
2019-03-18T15:41:47.689Z,77.20
2019-03-18T15:44:17.417Z,78.70
2019-03-18T15:46:47.059Z,79.90
2019-03-18T15:49:18.023Z,80.80
2019-03-18T15:51:47.663Z,81.60
2019-03-18T15:54:17.303Z,83.20
2019-03-18T15:56:48.182Z,86.40
2019-03-18T15:59:17.956Z,87.90
2019-03-18T16:01:47.664Z,89.90
2019-03-18T16:04:19.876Z,91.00
2019-03-18T16:06:50.931Z,91.50
2019-03-18T16:09:20.590Z,92.30
2019-03-18T16:11:50.250Z,92.80
2019-03-18T16:14:22.580Z,93.40
2019-03-18T16:17:01.573Z,93.90
2019-03-18T16:19:22.859Z,94.20
2019-03-18T16:21:52.510Z,94.50
2019-03-18T16:24:22.184Z,94.70
2019-03-18T16:26:54.422Z,95.20
2019-03-18T16:29:24.201Z,95.20
2019-03-18T16:31:53.931Z,95.40
2019-03-18T16:34:23.566Z,95.60
2019-03-18T16:36:53.256Z,95.80
2019-03-18T16:39:25.444Z,96.00
2019-03-18T16:41:55.513Z,96.20
2019-03-18T16:44:25.184Z,96.40
2019-03-18T16:46:54.919Z,96.40
2019-03-18T16:49:24.572Z,96.60
2019-03-18T16:51:54.267Z,96.70
2019-03-18T16:54:24.006Z,96.70
2019-03-18T16:56:56.160Z,96.70
2019-03-18T16:59:27.108Z,96.90
2019-03-18T17:01:56.845Z,97.00
2019-03-18T17:04:26.542Z,97.10
2019-03-18T17:06:56.170Z,97.10
2019-03-18T17:09:27.086Z,97.20
2019-03-18T17:11:56.835Z,97.30
2019-03-18T17:14:27.673Z,97.40
2019-03-18T17:16:57.512Z,97.50
2019-03-18T17:19:27.156Z,97.70
2019-03-18T17:21:56.826Z,98.00
2019-03-18T17:24:26.459Z,98.00
2019-03-18T17:26:56.074Z,98.40
2019-03-18T17:29:26.763Z,98.90
2019-03-18T17:31:57.625Z,99.00
2019-03-18T17:34:28.991Z,98.90
2019-03-18T17:37:00.415Z,99.40
2019-03-18T17:39:30.040Z,99.60
2019-03-18T17:42:00.945Z,99.70
2019-03-18T17:44:30.579Z,99.80
2019-03-18T17:47:00.479Z,99.60
2019-03-18T17:49:31.218Z,99.60
2019-03-18T17:52:00.845Z,99.60
2019-03-18T17:54:31.270Z,99.60
2019-03-18T17:57:07.484Z,99.60
2019-03-18T17:59:33.066Z,99.50
2019-03-18T18:02:02.726Z,99.60
2019-03-18T18:04:33.887Z,99.60
2019-03-18T18:07:03.524Z,99.50
2019-03-18T18:09:35.679Z,99.70
2019-03-18T18:12:06.661Z,99.80
2019-03-18T18:14:36.283Z,99.90
2019-03-18T18:17:05.970Z,99.90
2019-03-18T18:19:35.589Z,99.90
2019-03-18T18:22:05.389Z,99.90
2019-03-18T18:24:35.068Z,99.90
2019-03-18T18:27:04.680Z,99.90
2019-03-18T18:29:35.628Z,99.90
2019-03-18T18:32:05.315Z,99.90
2019-03-18T18:34:34.972Z,99.90
2019-03-18T18:37:04.615Z,99.90
2019-03-18T18:39:35.481Z,99.90
2019-03-18T18:42:05.146Z,99.90
2019-03-18T18:44:34.821Z,99.90
2019-03-18T18:47:05.640Z,99.90
2019-03-18T18:49:35.299Z,99.90
2019-03-18T18:52:06.283Z,99.90
2019-03-18T18:54:35.978Z,99.90
2019-03-18T18:57:05.620Z,99.90
2019-03-18T18:59:36.582Z,99.90
2019-03-18T19:02:06.219Z,99.90
2019-03-18T19:04:35.952Z,99.90
2019-03-18T19:07:05.664Z,99.90
2019-03-18T19:09:35.281Z,99.90
2019-03-18T19:12:06.111Z,99.90
2019-03-18T19:14:35.735Z,99.90
2019-03-18T19:17:06.690Z,99.90
2019-03-18T19:19:36.372Z,99.90
2019-03-18T19:22:07.235Z,99.90
2019-03-18T19:24:36.927Z,99.90
2019-03-18T19:27:06.646Z,99.90
2019-03-18T19:29:36.920Z,99.90
2019-03-18T19:32:06.546Z,99.90
2019-03-18T19:34:36.172Z,99.90
2019-03-18T19:37:07.142Z,99.90
2019-03-18T19:39:38.068Z,99.90
2019-03-18T19:42:07.747Z,99.90
2019-03-18T19:44:38.110Z,99.90
2019-03-18T19:47:09.071Z,99.90
2019-03-18T19:49:38.744Z,99.90
2019-03-18T19:52:08.450Z,99.90
2019-03-18T19:54:39.311Z,99.90
2019-03-18T19:57:10.899Z,99.90
2019-03-18T19:59:41.871Z,99.90
2019-03-18T20:02:11.579Z,99.90
2019-03-18T20:04:41.247Z,99.90
2019-03-18T20:07:11.029Z,99.90
2019-03-18T20:09:40.654Z,99.90
2019-03-18T20:12:10.314Z,99.90
2019-03-18T20:14:41.170Z,99.90
2019-03-18T20:17:11.074Z,99.90
2019-03-18T20:19:40.754Z,99.90
2019-03-18T20:22:10.543Z,99.90
2019-03-18T20:24:41.302Z,99.90
2019-03-18T20:27:11.667Z,99.90
2019-03-18T20:29:42.540Z,99.90
2019-03-18T20:32:12.593Z,99.90
2019-03-18T20:34:42.411Z,99.90
2019-03-18T20:37:13.210Z,99.90
2019-03-18T20:39:44.225Z,99.90
2019-03-18T20:42:15.151Z,99.90
2019-03-18T20:44:44.839Z,99.90
2019-03-18T20:47:15.705Z,99.90
2019-03-18T20:49:45.412Z,99.90
2019-03-18T20:52:16.954Z,99.90
2019-03-18T20:54:44.934Z,99.90
2019-03-18T20:57:17.094Z,99.90
2019-03-18T20:59:46.802Z,99.90
2019-03-18T21:02:16.894Z,99.90
2019-03-18T21:04:46.965Z,99.90
2019-03-18T21:07:19.351Z,99.90
2019-03-18T21:09:49.714Z,99.90
2019-03-18T21:12:20.789Z,99.90
2019-03-18T21:14:50.415Z,99.90
2019-03-18T21:17:20.068Z,99.90
2019-03-18T21:19:50.952Z,99.90
2019-03-18T21:22:20.679Z,99.90
2019-03-18T21:24:52.308Z,99.80
2019-03-18T21:27:22.620Z,99.60
2019-03-18T21:29:53.634Z,99.50
2019-03-18T21:32:23.344Z,99.60
2019-03-18T21:34:53.046Z,99.40
2019-03-18T21:37:22.711Z,99.40
2019-03-18T21:39:53.619Z,99.40
2019-03-18T21:42:23.250Z,99.40
2019-03-18T21:44:52.945Z,99.50
2019-03-18T21:47:23.558Z,99.50
2019-03-18T21:49:53.212Z,99.50
2019-03-18T21:52:22.866Z,99.50
2019-03-18T21:54:53.822Z,99.50
2019-03-18T21:57:24.814Z,99.50
2019-03-18T21:59:57.532Z,99.50
2019-03-18T22:02:25.446Z,99.50
2019-03-18T22:04:55.137Z,99.50
2019-03-18T22:07:24.819Z,99.50
2019-03-18T22:09:54.460Z,99.50
2019-03-18T22:12:24.158Z,99.40
2019-03-18T22:14:53.884Z,99.40
2019-03-18T22:17:23.566Z,99.40
2019-03-18T22:19:53.274Z,99.40
2019-03-18T22:22:22.931Z,99.60
2019-03-18T22:24:52.644Z,99.50
2019-03-18T22:27:22.303Z,99.60
2019-03-18T22:29:51.938Z,99.50
2019-03-18T22:32:21.639Z,99.70
2019-03-18T22:34:51.271Z,99.80
2019-03-18T22:37:20.939Z,99.90
2019-03-18T22:39:50.617Z,99.90
2019-03-18T22:42:20.259Z,99.90
2019-03-18T22:44:49.942Z,99.90
2019-03-18T22:47:20.794Z,99.90
2019-03-18T22:49:50.499Z,99.80
2019-03-18T22:52:20.172Z,99.80
2019-03-18T22:54:55.850Z,99.80
2019-03-18T22:57:19.512Z,99.90
2019-03-18T22:59:49.180Z,99.90
2019-03-18T23:02:18.859Z,99.90
2019-03-18T23:04:48.521Z,99.90
2019-03-18T23:07:19.394Z,99.90
2019-03-18T23:09:49.099Z,99.90
2019-03-18T23:12:18.721Z,99.90
2019-03-18T23:14:48.399Z,99.80
2019-03-18T23:17:19.364Z,99.80
2019-03-18T23:19:48.972Z,99.70
2019-03-18T23:22:18.615Z,99.70
2019-03-18T23:24:48.297Z,99.70
2019-03-18T23:27:17.882Z,99.60
2019-03-18T23:29:47.530Z,99.50
2019-03-18T23:32:17.151Z,99.80
2019-03-18T23:34:46.766Z,99.50
2019-03-18T23:37:17.663Z,99.40
2019-03-18T23:39:47.254Z,99.40
2019-03-18T23:42:16.878Z,99.30
2019-03-18T23:44:46.494Z,99.20
2019-03-18T23:47:18.631Z,99.20
2019-03-18T23:49:48.255Z,99.10
2019-03-18T23:52:17.867Z,99.00
2019-03-18T23:54:47.543Z,99.00
2019-03-18T23:57:17.160Z,98.90
2019-03-18T23:59:46.770Z,98.90
